Terminal Aerodrome Forecast
Issued by NWS

Home | Current Version | Previous Version | Text Only | Print | Product List | Glossary On
Versions: 1 2 3 4 5 6 7 8 9 10 11 12 13 14 15
169
FTUS46 KMTR 201725
TAFOAK
TAF
KOAK 201725Z 2018/2124 25015G22KT P6SM BKN020
     FM202100 26015G22KT P6SM SCT025 BKN250
      TEMPO 2021/2101 BKN020 OVC250
     FM210400 25012KT P6SM SCT020 BKN250
     FM210600 26012KT P6SM OVC015
     FM211800 21009KT P6SM BKN020
     FM212100 26015G22KT P6SM SCT025 BKN250=

USA.gov is the U.S. government's official web portal to all federal, state and local government web resources and services.